Portada
METAR-TAF:

METAR-TAF

Aeroports :

New Haven, Connecticut, Estats Units d'Amèrica

latitud: 41-15-50N, longitud: 072-53-14W, altitud: 4 m

Observació

L'informe es va fer fa 41 minuts, a les 17:53 UTC
Vent 5 kt del Sud-Est
Temperatura 23°C
Humitat 73%
Pressió 1011 hPa
Visibilitat: 16.1 km
Núvols disperses a una alçada de 3300 ft
Núvols disperses a una alçada de 5500 ft
Cel ennuvolat a una alçada de 11000 ft

METAR: KHVN 161753Z 14005KT 10SM SCT033 SCT055 BKN110 23/18 A2984 RMK AO2 SLP106 T02280183 10244 20194 58018

Hora: 14:34 (18:34 UTC)


TAF: manca

Observacions i pronòstics meteorològics de més de 4000 aeroports (METAR i TAF).

Les estacions disponibles són els punts grocs i vermells al mapa.

Posi el ratolí al punt desitjat per veure el nom de l'estació.

Feu clic per veure les observacions i els pronòstics meteorològics.

Per canviar el mapa: feu clic els botons verds amb una creu de color negre per apropar; al botó verd amb un guió per allunyar la imatge; o en les fletxes verdes per a mapes adjacents.


METAR-TAF: